Time;durP1;ratioP1;P1;durP2;ratioP2;P2;SDS_P1;SDS_P2;PMS_P1;PMS_P2;Temp;Humidity;BMP_temperature;BMP_pressure;BME280_temperature;BME280_humidity;BME280_pressure;Samples;Min_cycle;Max_cycle;Signal;HPM_P1;HPM_P2
2024/02/22 00:00:49;;;;;;;31.67;22.77;;;11.70;73.60;;;;;;5053156;28;20029;-73
2024/02/22 00:03:15;;;;;;;31.27;22.15;;;11.70;73.50;;;;;;5053309;28;20032;-73
2024/02/22 00:05:41;;;;;;;32.75;21.98;;;11.60;73.40;;;;;;5053185;28;20017;-73
2024/02/22 00:08:06;;;;;;;26.80;21.90;;;11.70;73.20;;;;;;5053243;28;20021;-73
2024/02/22 00:10:33;;;;;;;27.98;21.85;;;11.70;73.00;;;;;;5053419;28;20067;-74
2024/02/22 00:12:59;;;;;;;29.65;21.30;;;11.70;72.90;;;;;;5052834;28;20552;-73
2024/02/22 00:15:25;;;;;;;31.52;21.17;;;11.60;73.10;;;;;;5052930;28;20168;-73
2024/02/22 00:17:52;;;;;;;33.65;22.02;;;11.60;73.00;;;;;;5052673;28;20029;-73
2024/02/22 00:20:18;;;;;;;34.28;22.38;;;11.60;73.00;;;;;;5053108;28;20025;-73
2024/02/22 00:22:46;;;;;;;32.65;23.10;;;11.60;73.00;;;;;;5052790;28;20044;-73
2024/02/22 00:25:12;;;;;;;34.13;22.02;;;11.60;73.00;;;;;;5052526;28;20025;-73
2024/02/22 00:27:39;;;;;;;33.20;22.83;;;11.60;72.90;;;;;;5052927;28;20100;-73
2024/02/22 00:30:12;;;;;;;34.05;23.90;;;11.60;73.20;;;;;;5052790;28;20083;-73
2024/02/22 00:32:38;;;;;;;33.75;24.02;;;11.60;73.20;;;;;;5052962;28;20104;-73
2024/02/22 00:35:05;;;;;;;37.95;25.77;;;11.70;73.30;;;;;;5052731;28;20066;-74
2024/02/22 00:37:37;;;;;;;38.85;26.15;;;11.60;73.40;;;;;;5052946;28;20107;-74
2024/02/22 00:40:04;;;;;;;37.08;26.13;;;11.60;73.60;;;;;;5052868;28;20032;-73
2024/02/22 00:42:33;;;;;;;38.83;26.88;;;11.60;73.60;;;;;;5052733;28;20036;-73
2024/02/22 00:44:59;;;;;;;38.00;27.17;;;11.50;73.70;;;;;;5052697;28;20064;-74
2024/02/22 00:47:24;;;;;;;39.97;26.88;;;11.50;73.70;;;;;;5052609;28;20048;-73
2024/02/22 00:49:50;;;;;;;42.95;27.67;;;11.40;73.80;;;;;;5052455;28;20100;-73
2024/02/22 00:52:16;;;;;;;40.72;25.45;;;11.40;74.10;;;;;;5052247;28;20025;-73
2024/02/22 00:54:43;;;;;;;37.47;26.77;;;11.30;73.80;;;;;;5052274;28;20025;-73
2024/02/22 00:57:08;;;;;;;38.22;27.05;;;11.30;73.80;;;;;;5052633;28;20125;-72
2024/02/22 00:59:34;;;;;;;37.20;26.20;;;11.30;73.90;;;;;;5052578;28;20047;-74
2024/02/22 01:02:00;;;;;;;34.92;25.55;;;11.30;73.90;;;;;;5052586;28;20078;-73
2024/02/22 01:04:26;;;;;;;36.55;27.10;;;11.20;73.80;;;;;;5052058;28;20102;-73
2024/02/22 01:06:54;;;;;;;35.45;25.48;;;11.20;73.80;;;;;;5052471;28;20469;-73
2024/02/22 01:09:20;;;;;;;36.88;26.15;;;11.10;73.70;;;;;;5052699;28;20025;-73
2024/02/22 01:11:46;;;;;;;36.17;25.38;;;11.10;73.60;;;;;;5052620;28;20028;-73
2024/02/22 01:14:12;;;;;;;39.20;25.77;;;11.10;73.60;;;;;;5052660;28;20021;-74
2024/02/22 01:16:38;;;;;;;32.42;24.95;;;11.10;74.00;;;;;;5052218;28;20500;-73
2024/02/22 01:19:04;;;;;;;35.15;23.30;;;11.10;73.30;;;;;;5053093;28;20044;-72
2024/02/22 01:21:30;;;;;;;36.08;23.42;;;11.10;73.40;;;;;;5053945;28;20032;-73
2024/02/22 01:23:56;;;;;;;34.67;23.73;;;11.00;72.90;;;;;;5056387;28;20029;-73
2024/02/22 01:26:22;;;;;;;30.13;21.67;;;11.00;73.10;;;;;;5073063;28;20033;-71
2024/02/22 01:28:51;;;;;;;30.95;22.33;;;10.90;73.00;;;;;;5066376;28;20051;-73
2024/02/22 01:31:17;;;;;;;33.35;22.45;;;10.90;73.10;;;;;;5074163;28;20045;-72
2024/02/22 01:33:46;;;;;;;31.60;22.42;;;11.00;72.90;;;;;;5059903;28;20035;-73
2024/02/22 01:36:12;;;;;;;27.65;21.20;;;11.00;72.90;;;;;;5054778;28;20465;-73
2024/02/22 01:38:38;;;;;;;31.67;21.40;;;10.90;72.90;;;;;;5056160;28;20503;-73
2024/02/22 01:41:05;;;;;;;28.38;20.13;;;10.90;72.60;;;;;;5055903;28;20021;-72
2024/02/22 01:43:32;;;;;;;27.13;19.92;;;10.90;72.70;;;;;;5055655;28;20504;-73
2024/02/22 01:45:58;;;;;;;30.02;20.35;;;10.90;72.50;;;;;;5055745;28;20371;-73
2024/02/22 01:48:24;;;;;;;27.52;19.40;;;10.80;72.40;;;;;;5055845;28;20025;-72
2024/02/22 01:50:54;;;;;;;26.02;19.83;;;10.80;72.40;;;;;;5055531;28;20029;-72
2024/02/22 01:53:27;;;;;;;25.40;19.27;;;10.90;73.00;;;;;;5055467;28;20048;-73
2024/02/22 01:55:57;;;;;;;;;;;10.70;73.00;;;;;;5055906;28;20036;-72
2024/02/22 01:58:25;;;;;;;29.10;18.48;;;10.70;72.50;;;;;;5054963;28;19912;-71
2024/02/22 02:00:51;;;;;;;25.13;17.15;;;10.60;72.60;;;;;;5055081;28;20389;-74
2024/02/22 02:03:17;;;;;;;23.58;16.65;;;10.60;72.60;;;;;;5055271;28;20471;-73
2024/02/22 02:05:44;;;;;;;25.95;17.67;;;10.60;72.60;;;;;;5054903;28;20091;-72
2024/02/22 02:08:12;;;;;;;23.67;16.15;;;10.50;72.50;;;;;;5055283;28;20115;-73
2024/02/22 02:10:38;;;;;;;21.08;16.00;;;10.40;72.60;;;;;;5055075;28;20480;-72
2024/02/22 02:13:05;;;;;;;20.35;15.30;;;10.40;72.50;;;;;;5055163;28;20519;-71
2024/02/22 02:15:34;;;;;;;20.83;14.02;;;10.40;72.50;;;;;;5053681;28;20499;-72
2024/02/22 02:18:00;;;;;;;24.60;13.98;;;10.40;72.90;;;;;;5054559;28;20480;-72
2024/02/22 02:20:29;;;;;;;16.95;12.05;;;10.40;72.20;;;;;;5055065;28;20109;-73
2024/02/22 02:23:07;;;;;;;16.40;11.18;;;10.40;72.10;;;;;;5054873;28;20102;-72
2024/02/22 02:25:33;;;;;;;16.83;11.02;;;10.40;72.00;;;;;;5054829;28;20020;-72
2024/02/22 02:27:58;;;;;;;16.95;11.18;;;10.30;72.00;;;;;;5055033;28;20025;-72
2024/02/22 02:30:24;;;;;;;14.63;10.10;;;10.20;71.80;;;;;;5069981;28;20405;-73
2024/02/22 02:32:50;;;;;;;15.60;10.98;;;10.30;71.90;;;;;;5054704;28;20072;-73
2024/02/22 02:35:15;;;;;;;16.20;10.60;;;10.30;71.80;;;;;;5054367;28;20021;-73
2024/02/22 02:37:41;;;;;;;14.95;9.80;;;10.30;71.70;;;;;;5054755;28;20098;-72
2024/02/22 02:40:07;;;;;;;18.13;11.00;;;10.30;71.50;;;;;;5054400;28;20024;-71
2024/02/22 02:42:33;;;;;;;14.82;10.82;;;10.30;71.90;;;;;;5054468;28;20017;-72
2024/02/22 02:44:58;;;;;;;15.23;10.40;;;10.20;71.80;;;;;;5054526;28;20029;-72
2024/02/22 02:47:24;;;;;;;15.10;10.10;;;10.20;71.80;;;;;;5053969;28;20066;-72
2024/02/22 02:49:50;;;;;;;17.27;11.10;;;10.20;72.00;;;;;;5054324;28;20074;-72
2024/02/22 02:52:15;;;;;;;15.45;9.98;;;10.10;71.70;;;;;;5054346;28;20028;-73
2024/02/22 02:54:41;;;;;;;16.83;9.73;;;10.10;71.90;;;;;;5054232;28;20025;-68
2024/02/22 02:57:07;;;;;;;12.65;9.85;;;10.10;71.60;;;;;;5054628;28;20032;-73
2024/02/22 02:59:32;;;;;;;16.25;9.52;;;10.10;71.80;;;;;;5053978;28;20044;-72
2024/02/22 03:01:58;;;;;;;11.65;9.13;;;10.00;71.70;;;;;;5054529;28;20047;-72
2024/02/22 03:04:24;;;;;;;16.05;9.60;;;10.00;71.80;;;;;;5054179;28;20086;-72
2024/02/22 03:06:50;;;;;;;15.25;9.63;;;10.10;71.80;;;;;;5054310;28;20028;-73
2024/02/22 03:09:15;;;;;;;15.07;9.20;;;10.10;71.80;;;;;;5053961;28;20064;-72
2024/02/22 03:11:41;;;;;;;17.88;9.55;;;10.10;71.50;;;;;;5054008;28;20056;-73
2024/02/22 03:14:09;;;;;;;15.60;9.65;;;10.10;71.40;;;;;;5054139;28;20036;-73
2024/02/22 03:16:37;;;;;;;14.85;9.43;;;10.20;71.50;;;;;;5054215;28;20029;-73
2024/02/22 03:19:03;;;;;;;13.82;8.77;;;10.10;71.20;;;;;;5053830;28;20061;-73
2024/02/22 03:21:29;;;;;;;14.38;9.32;;;10.10;71.30;;;;;;5054238;28;20025;-73
2024/02/22 03:23:55;;;;;;;12.50;8.82;;;10.10;71.50;;;;;;5053725;28;20471;-74
2024/02/22 03:26:24;;;;;;;11.98;8.82;;;10.10;71.50;;;;;;5054140;28;20033;-74
2024/02/22 03:28:53;;;;;;;12.23;8.93;;;10.00;71.30;;;;;;5054068;28;20050;-73
2024/02/22 03:31:22;;;;;;;13.73;9.18;;;10.00;71.80;;;;;;5053536;28;20413;-72
2024/02/22 03:33:47;;;;;;;12.50;9.20;;;10.10;71.30;;;;;;5053450;28;20025;-73
2024/02/22 03:36:13;;;;;;;13.93;9.27;;;10.00;71.50;;;;;;5054056;28;20031;-72
2024/02/22 03:38:39;;;;;;;14.07;9.15;;;9.90;72.50;;;;;;5053466;28;20033;-73
2024/02/22 03:41:05;;;;;;;15.07;9.45;;;9.90;72.60;;;;;;5053492;28;20028;-72
2024/02/22 03:43:31;;;;;;;12.93;8.98;;;9.90;72.90;;;;;;5053720;28;20033;-73
2024/02/22 03:45:57;;;;;;;14.25;9.13;;;10.00;71.70;;;;;;5053325;28;20451;-73
2024/02/22 03:48:22;;;;;;;12.93;9.05;;;9.90;72.50;;;;;;5053114;28;20021;-72
2024/02/22 03:50:49;;;;;;;13.32;9.45;;;10.00;71.50;;;;;;5053145;28;20032;-74
2024/02/22 03:53:17;;;;;;;13.82;9.15;;;10.00;71.50;;;;;;5053394;28;20029;-72
2024/02/22 03:55:43;;;;;;;13.82;8.98;;;9.90;73.00;;;;;;5053160;28;20029;-73
2024/02/22 03:58:09;;;;;;;13.00;9.45;;;9.90;72.60;;;;;;5052703;28;20037;-72
2024/02/22 04:00:35;;;;;;;13.70;9.05;;;10.00;71.60;;;;;;5053066;28;20081;-73
2024/02/22 04:03:02;;;;;;;13.80;9.65;;;9.90;72.50;;;;;;5053252;28;20021;-72
2024/02/22 04:05:28;;;;;;;14.00;9.68;;;9.90;72.30;;;;;;5068460;28;20396;-72
2024/02/22 04:07:54;;;;;;;14.93;9.30;;;9.90;72.60;;;;;;5052931;28;20025;-73
2024/02/22 04:10:20;;;;;;;12.63;8.32;;;9.80;72.70;;;;;;5052998;28;20021;-73
2024/02/22 04:12:47;;;;;;;14.40;9.40;;;9.90;72.80;;;;;;5055861;28;20097;-73
2024/02/22 04:15:13;;;;;;;12.32;9.25;;;9.80;72.70;;;;;;5076424;28;20029;-73
2024/02/22 04:17:39;;;;;;;15.38;9.25;;;9.80;72.80;;;;;;5071154;28;20091;-73
2024/02/22 04:20:07;;;;;;;16.60;9.07;;;9.70;72.80;;;;;;5053683;28;20025;-72
2024/02/22 04:22:45;;;;;;;13.40;9.15;;;9.80;72.90;;;;;;5053194;28;20109;-71
2024/02/22 04:25:11;;;;;;;15.90;9.50;;;9.70;72.60;;;;;;5053031;28;20025;-73
2024/02/22 04:27:36;;;;;;;12.77;8.90;;;9.70;73.00;;;;;;5052903;28;20028;-72
2024/02/22 04:30:03;;;;;;;11.73;8.35;;;9.60;73.00;;;;;;5053019;28;20048;-73
2024/02/22 04:32:28;;;;;;;12.50;8.57;;;9.60;73.20;;;;;;5053071;28;20437;-73
2024/02/22 04:34:54;;;;;;;15.27;8.95;;;9.70;73.20;;;;;;5052660;28;20033;-73
2024/02/22 04:37:20;;;;;;;14.63;8.85;;;9.70;73.10;;;;;;5052687;28;20082;-72
2024/02/22 04:39:46;;;;;;;16.20;8.60;;;9.70;72.70;;;;;;5052857;28;20029;-74
2024/02/22 04:42:12;;;;;;;13.65;9.32;;;9.60;73.40;;;;;;5052986;28;20147;-73
2024/02/22 04:44:38;;;;;;;13.32;8.70;;;9.60;72.90;;;;;;5052945;28;20111;-72
2024/02/22 04:47:03;;;;;;;12.80;8.55;;;9.70;72.70;;;;;;5052565;28;20036;-73
2024/02/22 04:49:29;;;;;;;13.05;9.48;;;9.70;73.10;;;;;;5052399;28;20012;-72
2024/02/22 04:51:56;;;;;;;13.85;9.93;;;9.70;72.70;;;;;;5052487;28;20373;-67
2024/02/22 04:54:22;;;;;;;16.02;9.02;;;9.70;72.70;;;;;;5052647;28;20108;-74
2024/02/22 04:56:47;;;;;;;13.52;9.23;;;9.70;72.90;;;;;;5052466;28;20533;-73
2024/02/22 04:59:13;;;;;;;14.05;8.75;;;9.60;72.70;;;;;;5052616;28;20586;-73
2024/02/22 05:01:39;;;;;;;16.38;9.40;;;9.50;72.80;;;;;;5052636;28;20025;-74
2024/02/22 05:04:05;;;;;;;12.63;8.95;;;9.40;72.80;;;;;;5052385;28;20087;-73
2024/02/22 05:06:30;;;;;;;12.05;8.75;;;9.40;73.30;;;;;;5052564;28;20032;-73
2024/02/22 05:08:56;;;;;;;16.42;9.00;;;9.40;73.10;;;;;;5051313;28;20033;-73
2024/02/22 05:11:22;;;;;;;12.50;8.80;;;9.40;73.00;;;;;;5056117;28;20017;-73
2024/02/22 05:13:50;;;;;;;18.50;9.40;;;9.40;73.00;;;;;;5056515;28;20052;-74
2024/02/22 05:16:15;;;;;;;14.57;8.90;;;9.50;73.20;;;;;;5056320;28;20024;-73
2024/02/22 05:18:41;;;;;;;15.00;9.20;;;9.50;73.10;;;;;;5056094;28;20481;-72
2024/02/22 05:21:08;;;;;;;15.13;9.68;;;9.50;73.00;;;;;;5056537;28;20060;-73
2024/02/22 05:23:33;;;;;;;15.35;9.70;;;9.50;72.90;;;;;;5056177;28;20611;-72
2024/02/22 05:25:59;;;;;;;12.88;9.35;;;9.50;73.00;;;;;;5056316;28;20021;-73
2024/02/22 05:28:25;;;;;;;12.57;8.90;;;9.50;72.90;;;;;;5056465;28;20430;-73
2024/02/22 05:30:51;;;;;;;15.52;9.30;;;9.40;73.00;;;;;;5055721;28;20143;-73
2024/02/22 05:33:16;;;;;;;11.52;8.25;;;9.40;73.20;;;;;;5056170;28;20033;-72
2024/02/22 05:35:42;;;;;;;14.43;9.52;;;9.30;73.50;;;;;;5055931;28;20020;-73
2024/02/22 05:38:08;;;;;;;20.60;9.30;;;9.20;73.30;;;;;;5055936;28;20032;-73
2024/02/22 05:40:34;;;;;;;12.95;9.27;;;9.20;73.40;;;;;;5055731;28;20024;-72
2024/02/22 05:42:59;;;;;;;13.20;9.07;;;9.30;73.70;;;;;;5055635;28;20033;-73
2024/02/22 05:45:46;;;;;;;22.55;9.90;;;9.40;73.50;;;;;;5055852;28;20020;-73
2024/02/22 05:48:13;;;;;;;16.85;9.13;;;9.40;74.80;;;;;;5055664;28;20025;-73
2024/02/22 05:50:39;;;;;;;13.45;9.45;;;9.50;73.30;;;;;;5055690;28;20029;-74
2024/02/22 05:53:05;;;;;;;13.00;8.63;;;9.50;73.10;;;;;;5055540;28;20020;-73
2024/02/22 05:55:31;;;;;;;13.18;8.80;;;9.50;73.30;;;;;;5055240;28;20024;-73
2024/02/22 05:57:57;;;;;;;13.63;8.93;;;9.40;73.10;;;;;;5055119;28;20427;-71
2024/02/22 06:00:24;;;;;;;12.52;9.13;;;9.40;73.50;;;;;;5055247;28;20025;-73
2024/02/22 06:02:50;;;;;;;19.02;9.75;;;9.40;73.60;;;;;;5055466;28;20035;-73
2024/02/22 06:05:15;;;;;;;15.18;9.85;;;9.40;73.60;;;;;;5055556;28;20033;-73
2024/02/22 06:07:41;;;;;;;13.93;10.07;;;9.40;73.60;;;;;;5055154;28;20024;-72
2024/02/22 06:10:09;;;;;;;17.67;10.10;;;9.40;73.60;;;;;;5055339;28;20405;-73
2024/02/22 06:12:36;;;;;;;14.57;10.10;;;9.40;74.10;;;;;;5055091;28;20024;-74
2024/02/22 06:15:03;;;;;;;18.83;10.18;;;9.50;73.70;;;;;;5055329;28;20029;-73
2024/02/22 06:17:30;;;;;;;17.38;10.38;;;9.60;73.80;;;;;;5055149;28;20037;-74
2024/02/22 06:19:56;;;;;;;14.73;10.20;;;9.60;73.60;;;;;;5055319;28;20032;-73
2024/02/22 06:22:21;;;;;;;17.67;10.88;;;9.70;73.60;;;;;;5054104;28;20013;-74
2024/02/22 06:24:47;;;;;;;16.48;11.00;;;9.80;73.40;;;;;;5054944;28;20021;-72
2024/02/22 06:27:13;;;;;;;15.75;10.70;;;9.90;73.50;;;;;;5054855;28;20412;-74
2024/02/22 06:29:42;;;;;;;15.63;10.55;;;10.00;72.30;;;;;;5054915;28;20033;-73
2024/02/22 06:32:08;;;;;;;16.90;10.80;;;10.00;72.10;;;;;;5054948;28;20109;-74
2024/02/22 06:34:33;;;;;;;17.20;10.20;;;10.00;72.00;;;;;;5054507;28;20047;-73
2024/02/22 06:36:59;;;;;;;16.92;10.55;;;10.00;71.90;;;;;;5054398;28;20021;-74
2024/02/22 06:39:27;;;;;;;15.55;10.32;;;10.00;71.90;;;;;;5054249;28;20029;-73
2024/02/22 06:41:54;;;;;;;14.73;10.32;;;10.10;71.80;;;;;;5054052;28;20025;-74
2024/02/22 06:44:20;;;;;;;15.90;10.07;;;10.10;71.50;;;;;;5055022;28;20489;-73
2024/02/22 06:46:46;;;;;;;16.15;9.43;;;10.10;71.60;;;;;;5062146;28;20028;-73
2024/02/22 06:49:15;;;;;;;17.75;10.10;;;10.00;71.40;;;;;;5076584;28;20022;-72
2024/02/22 06:51:42;;;;;;;15.35;10.18;;;10.00;71.60;;;;;;5078646;28;20035;-73
2024/02/22 06:54:08;;;;;;;15.10;9.80;;;10.10;71.50;;;;;;5062035;28;20025;-74
2024/02/22 06:56:34;;;;;;;16.48;9.93;;;10.20;71.30;;;;;;5054637;28;20033;-73
2024/02/22 06:58:59;;;;;;;16.92;10.57;;;10.30;71.30;;;;;;5053083;28;20147;-74
2024/02/22 07:01:25;;;;;;;14.50;9.70;;;10.50;71.20;;;;;;5054421;28;20090;-75
2024/02/22 07:03:51;;;;;;;15.50;9.10;;;11.50;70.30;;;;;;5053854;28;20025;-74
2024/02/22 07:06:16;;;;;;;13.77;9.60;;;12.90;68.30;;;;;;5054292;28;20095;-75
2024/02/22 07:08:42;;;;;;;14.65;9.73;;;13.70;65.90;;;;;;5054187;28;20021;-75
2024/02/22 07:11:13;;;;;;;13.43;9.02;;;14.10;63.80;;;;;;5053814;28;20429;-74
2024/02/22 07:13:39;;;;;;;15.68;9.80;;;14.40;63.40;;;;;;5053854;28;20480;-74
2024/02/22 07:16:06;;;;;;;14.52;9.55;;;14.40;62.20;;;;;;5053666;28;20041;-73
2024/02/22 07:18:32;;;;;;;15.93;9.35;;;14.60;62.40;;;;;;5053542;28;20040;-75
2024/02/22 07:20:58;;;;;;;15.13;9.68;;;15.00;61.50;;;;;;5053911;28;20044;-74
2024/02/22 07:23:24;;;;;;;14.48;9.85;;;15.10;61.00;;;;;;5053928;28;20500;-73
2024/02/22 07:25:49;;;;;;;16.85;10.48;;;15.10;60.90;;;;;;5052369;28;20020;-74
2024/02/22 07:28:15;;;;;;;16.58;10.18;;;14.90;61.10;;;;;;5053653;28;20037;-74
2024/02/22 07:30:41;;;;;;;24.85;12.13;;;14.80;61.40;;;;;;5053404;28;20400;-74
2024/02/22 07:33:09;;;;;;;16.25;10.52;;;14.90;61.30;;;;;;5053291;28;20107;-74
2024/02/22 07:35:35;;;;;;;14.55;10.88;;;15.20;60.90;;;;;;5053254;28;20098;-74
2024/02/22 07:38:01;;;;;;;16.52;10.68;;;15.40;60.30;;;;;;5052923;28;20065;-74
2024/02/22 07:40:27;;;;;;;13.80;10.25;;;15.60;60.30;;;;;;5053456;28;20102;-74
2024/02/22 07:42:52;;;;;;;16.08;10.50;;;16.00;60.00;;;;;;5053228;28;20021;-75
2024/02/22 07:45:18;;;;;;;18.02;11.02;;;16.10;59.10;;;;;;5053413;28;20484;-74
2024/02/22 07:47:44;;;;;;;16.95;10.60;;;16.20;58.40;;;;;;5053222;28;20021;-74
2024/02/22 07:50:13;;;;;;;14.75;10.63;;;15.40;58.60;;;;;;5052950;28;20123;-75
2024/02/22 07:52:40;;;;;;;19.17;11.55;;;14.40;59.90;;;;;;5052927;28;20116;-74
2024/02/22 07:55:06;;;;;;;18.13;11.10;;;13.80;61.30;;;;;;5052917;28;20029;-74
2024/02/22 07:57:32;;;;;;;19.08;10.95;;;13.40;62.30;;;;;;5052676;28;20029;-74
2024/02/22 07:59:58;;;;;;;15.05;10.80;;;13.10;63.20;;;;;;5052840;28;20057;-74
2024/02/22 08:02:25;;;;;;;22.63;11.27;;;12.90;63.80;;;;;;5053127;28;20108;-75
2024/02/22 08:04:51;;;;;;;17.45;10.63;;;12.80;64.20;;;;;;5052845;28;20025;-74
2024/02/22 08:07:17;;;;;;;17.60;11.98;;;12.70;64.70;;;;;;5052889;28;20017;-75
2024/02/22 08:09:43;;;;;;;19.75;12.63;;;12.70;65.00;;;;;;5052934;28;20032;-72
2024/02/22 08:12:09;;;;;;;27.42;13.35;;;12.70;65.20;;;;;;5068179;28;20025;-74
2024/02/22 08:14:35;;;;;;;23.10;13.52;;;12.70;65.20;;;;;;5052623;28;20120;-75
2024/02/22 08:17:01;;;;;;;24.33;14.60;;;12.60;65.30;;;;;;5052357;28;20039;-75
2024/02/22 08:19:27;;;;;;;20.98;12.23;;;12.70;65.60;;;;;;5052536;28;20546;-75
2024/02/22 08:21:53;;;;;;;18.25;12.98;;;12.80;65.50;;;;;;5052235;28;20017;-74
2024/02/22 08:24:20;;;;;;;33.38;12.35;;;12.80;65.60;;;;;;5052306;28;20033;-75
2024/02/22 08:26:46;;;;;;;25.65;11.95;;;12.80;65.50;;;;;;5052572;28;20551;-74
2024/02/22 08:29:12;;;;;;;30.80;11.52;;;12.90;65.50;;;;;;5052673;28;20032;-74
2024/02/22 08:31:37;;;;;;;21.65;11.02;;;12.90;65.50;;;;;;5052347;28;20056;-74
2024/02/22 08:34:03;;;;;;;17.75;10.15;;;13.00;65.50;;;;;;5052547;28;20071;-75
2024/02/22 08:36:29;;;;;;;28.52;11.82;;;13.10;65.60;;;;;;5052428;28;20092;-74
2024/02/22 08:38:57;;;;;;;25.95;11.05;;;13.30;65.60;;;;;;5052517;28;20586;-74
2024/02/22 08:41:23;;;;;;;30.05;10.93;;;13.40;65.50;;;;;;5052284;28;20024;-75
2024/02/22 08:43:48;;;;;;;24.10;11.38;;;13.50;65.40;;;;;;5052133;28;20043;-74
2024/02/22 08:46:14;;;;;;;24.42;10.82;;;13.60;65.50;;;;;;5052298;28;20025;-74
2024/02/22 08:48:40;;;;;;;21.92;10.85;;;13.80;65.40;;;;;;5052648;28;20029;-75
2024/02/22 08:51:11;;;;;;;23.02;10.27;;;13.90;65.40;;;;;;5051972;28;20036;-75
2024/02/22 08:53:38;;;;;;;25.58;12.05;;;14.10;65.70;;;;;;5052393;28;20025;-74
2024/02/22 08:56:08;;;;;;;20.58;11.20;;;14.20;65.40;;;;;;5052524;28;20505;-74
2024/02/22 08:58:34;;;;;;;21.70;9.98;;;14.30;66.10;;;;;;5052235;28;20052;-74
2024/02/22 09:01:00;;;;;;;22.70;10.27;;;14.40;66.40;;;;;;5052428;28;20017;-75
2024/02/22 09:03:26;;;;;;;18.13;9.93;;;14.50;66.80;;;;;;5052422;28;20072;-74
2024/02/22 09:05:52;;;;;;;19.52;9.75;;;14.60;67.40;;;;;;5052051;28;20037;-74
2024/02/22 09:08:18;;;;;;;17.58;9.10;;;14.80;67.90;;;;;;5052281;28;20029;-74
2024/02/22 09:10:44;;;;;;;24.05;9.82;;;14.90;68.10;;;;;;5052392;28;20039;-74
2024/02/22 09:13:09;;;;;;;18.25;7.80;;;15.00;68.20;;;;;;5052596;28;20021;-73
2024/02/22 09:15:35;;;;;;;16.63;7.32;;;15.20;68.70;;;;;;5053520;28;20021;-71
2024/02/22 09:18:01;;;;;;;13.93;7.00;;;15.40;68.60;;;;;;5051510;28;20036;-75
2024/02/22 09:20:30;;;;;;;15.10;5.88;;;15.60;68.70;;;;;;5072484;28;20096;-73
2024/02/22 09:22:56;;;;;;;10.52;4.32;;;15.70;69.20;;;;;;5070814;28;20029;-72
2024/02/22 09:25:21;;;;;;;10.43;4.28;;;15.90;69.30;;;;;;5053480;28;20158;-73
2024/02/22 09:27:47;;;;;;;6.55;3.20;;;16.00;69.40;;;;;;5035046;28;20457;-74
2024/02/22 09:30:14;;;;;;;6.68;3.20;;;16.10;69.20;;;;;;5033874;28;20049;-74
2024/02/22 09:32:40;;;;;;;9.35;4.05;;;16.10;69.10;;;;;;5052348;28;20104;-76
2024/02/22 09:35:06;;;;;;;6.00;3.13;;;16.10;68.90;;;;;;5052073;28;20020;-75
2024/02/22 09:37:32;;;;;;;7.07;3.50;;;16.20;69.00;;;;;;5052034;28;20028;-75
2024/02/22 09:39:58;;;;;;;79.85;11.35;;;16.10;68.70;;;;;;5051787;28;20021;-76
2024/02/22 09:42:29;;;;;;;72.50;9.57;;;16.20;68.90;;;;;;5041339;28;20043;-75
2024/02/22 09:44:55;;;;;;;24.85;5.30;;;16.10;69.10;;;;;;5032112;28;20025;-77
2024/02/22 09:47:22;;;;;;;13.65;3.90;;;16.10;68.80;;;;;;5031955;28;20021;-79
2024/02/22 09:49:48;;;;;;;7.35;3.20;;;16.10;68.90;;;;;;5033382;28;20025;-78
2024/02/22 09:52:14;;;;;;;7.60;3.78;;;16.10;68.80;;;;;;5032008;28;20112;-80
2024/02/22 09:54:44;;;;;;;9.45;3.70;;;16.00;69.00;;;;;;5032094;28;20026;-84
2024/02/22 09:57:10;;;;;;;6.90;3.70;;;16.00;69.20;;;;;;5032208;28;20025;-79
2024/02/22 09:59:35;;;;;;;8.40;3.75;;;15.90;69.20;;;;;;5038483;28;20032;-78
2024/02/22 10:02:05;;;;;;;6.30;3.60;;;15.90;69.30;;;;;;5044133;28;20048;-79
2024/02/22 10:04:31;;;;;;;11.07;3.40;;;16.00;69.10;;;;;;5036134;28;20148;-75
2024/02/22 10:07:03;;;;;;;7.00;3.40;;;16.10;69.00;;;;;;5052271;28;20060;-83
2024/02/22 10:09:29;;;;;;;9.50;3.85;;;16.10;68.60;;;;;;5055528;28;20108;-81
2024/02/22 10:11:55;;;;;;;6.43;3.33;;;16.20;68.60;;;;;;5043007;28;20389;-77
2024/02/22 10:14:21;;;;;;;10.18;3.42;;;16.40;68.90;;;;;;5041450;28;20021;-73
2024/02/22 10:16:47;;;;;;;8.77;3.80;;;16.40;68.00;;;;;;5042691;28;20029;-75
2024/02/22 10:19:16;;;;;;;10.30;3.75;;;16.70;67.30;;;;;;5037321;28;20465;-74
2024/02/22 10:21:44;;;;;;;19.00;3.70;;;16.90;66.80;;;;;;5048607;28;20412;-74
2024/02/22 10:24:10;;;;;;;12.18;3.85;;;17.10;66.50;;;;;;5053191;28;20056;-77
2024/02/22 10:26:35;;;;;;;7.18;3.22;;;17.30;66.10;;;;;;5044544;28;20539;-72
2024/02/22 10:29:09;;;;;;;8.52;3.55;;;17.30;65.70;;;;;;5040887;28;20155;-82
2024/02/22 10:31:46;;;;;;;7.95;3.45;;;17.50;65.40;;;;;;5059454;28;20056;-78
2024/02/22 10:34:13;;;;;;;14.10;3.78;;;17.70;65.20;;;;;;5044264;28;20029;-77
2024/02/22 10:36:40;;;;;;;9.57;3.83;;;17.90;64.30;;;;;;5034508;28;20461;-83
2024/02/22 10:39:09;;;;;;;9.07;3.28;;;18.10;64.40;;;;;;5034116;28;20437;-81
2024/02/22 10:41:35;;;;;;;6.40;3.45;;;18.10;63.90;;;;;;5047244;28;20029;-80
2024/02/22 10:44:06;;;;;;;12.07;3.58;;;18.10;63.70;;;;;;5046230;28;20025;-80
2024/02/22 10:46:42;;;;;;;8.57;3.70;;;18.10;63.50;;;;;;5048677;28;20071;-76
2024/02/22 10:49:11;;;;;;;11.95;3.35;;;18.10;63.20;;;;;;5036134;28;20216;-74
2024/02/22 10:51:39;;;;;;;6.93;4.07;;;18.10;63.10;;;;;;5040166;28;20022;-75
2024/02/22 10:54:10;;;;;;;5.78;4.07;;;18.10;62.90;;;;;;5032953;28;20056;-74
2024/02/22 10:56:40;;;;;;;8.05;4.43;;;18.00;62.90;;;;;;5033345;28;20029;-77
2024/02/22 10:59:08;;;;;;;10.77;4.70;;;17.90;63.00;;;;;;5033248;28;20078;-76
2024/02/22 11:01:37;;;;;;;13.38;4.50;;;18.00;63.10;;;;;;5034126;28;20032;-76
2024/02/22 11:04:03;;;;;;;7.55;4.45;;;18.10;63.10;;;;;;5034680;28;20025;-75
2024/02/22 11:06:47;;;;;;;11.70;5.03;;;18.10;63.00;;;;;;5034546;28;20026;-76
2024/02/22 11:09:17;;;;;;;8.90;4.80;;;18.20;62.80;;;;;;5034536;28;20026;-76
2024/02/22 11:11:44;;;;;;;9.02;4.75;;;18.20;62.50;;;;;;5034966;28;20049;-75
2024/02/22 11:14:10;;;;;;;6.28;4.22;;;18.20;62.90;;;;;;5034626;28;20400;-75
2024/02/22 11:16:43;;;;;;;12.70;4.78;;;18.10;62.70;;;;;;5035421;28;20103;-76
2024/02/22 11:19:12;;;;;;;11.43;4.68;;;18.20;62.80;;;;;;5033096;28;20413;-76
2024/02/22 11:21:39;;;;;;;8.30;4.82;;;18.20;62.60;;;;;;5034439;28;20108;-74
2024/02/22 11:24:10;;;;;;;8.57;4.53;;;18.20;62.50;;;;;;5034163;28;20037;-76
2024/02/22 11:26:37;;;;;;;8.55;4.43;;;18.20;62.50;;;;;;5034282;28;20096;-75
2024/02/22 11:29:03;;;;;;;11.32;4.53;;;18.20;62.20;;;;;;5034407;28;20079;-75
2024/02/22 11:31:29;;;;;;;9.15;4.30;;;18.10;62.00;;;;;;5033888;28;20119;-75
2024/02/22 11:34:00;;;;;;;12.77;4.57;;;18.10;62.10;;;;;;5033572;28;20029;-74
2024/02/22 11:36:26;;;;;;;6.55;3.30;;;18.10;62.30;;;;;;5034117;28;20384;-75
2024/02/22 11:39:06;;;;;;;6.90;3.58;;;18.10;62.10;;;;;;5033857;28;20033;-75
2024/02/22 11:41:32;;;;;;;8.32;2.75;;;18.10;61.90;;;;;;5034013;28;20395;-76
2024/02/22 11:44:06;;;;;;;6.88;3.13;;;18.10;61.80;;;;;;5033457;28;20021;-75
2024/02/22 11:46:40;;;;;;;5.35;2.67;;;18.10;61.60;;;;;;5033900;28;20033;-75
2024/02/22 11:49:07;;;;;;;5.18;2.45;;;18.00;61.60;;;;;;5033264;28;20028;-76
2024/02/22 11:51:33;;;;;;;5.88;2.80;;;18.10;61.70;;;;;;5033562;28;20025;-75
2024/02/22 11:53:59;;;;;;;6.45;2.45;;;18.10;61.20;;;;;;5033457;28;20030;-75
2024/02/22 11:56:26;;;;;;;5.25;2.33;;;18.10;60.80;;;;;;5034240;28;20092;-75
2024/02/22 11:58:56;;;;;;;3.97;2.30;;;18.10;61.00;;;;;;5034825;28;20466;-75
2024/02/22 12:01:23;;;;;;;3.90;2.10;;;18.20;61.30;;;;;;5049805;28;20035;-74
2024/02/22 12:03:51;;;;;;;4.70;2.42;;;18.10;61.40;;;;;;5050731;28;20085;-75
2024/02/22 12:06:19;;;;;;;5.90;2.58;;;18.20;61.40;;;;;;5050385;28;20489;-75
2024/02/22 12:08:45;;;;;;;8.48;2.65;;;18.30;61.40;;;;;;5034831;28;20025;-74
2024/02/22 12:11:14;;;;;;;7.22;2.47;;;18.30;61.40;;;;;;5034198;28;20021;-75
2024/02/22 12:13:40;;;;;;;6.53;2.67;;;18.40;61.70;;;;;;5033211;28;20513;-76
2024/02/22 12:16:08;;;;;;;7.53;2.67;;;18.40;61.70;;;;;;5032743;28;20025;-75
2024/02/22 12:18:35;;;;;;;8.85;3.13;;;18.40;61.80;;;;;;5032934;28;20033;-76
2024/02/22 12:21:04;;;;;;;8.43;3.00;;;18.40;61.90;;;;;;5030854;28;20025;-74
2024/02/22 12:23:30;;;;;;;10.50;2.40;;;18.30;61.70;;;;;;5032341;28;20013;-76
2024/02/22 12:26:06;;;;;;;7.57;2.33;;;18.30;62.00;;;;;;5032727;28;20071;-76
2024/02/22 12:28:33;;;;;;;7.53;2.30;;;18.30;62.10;;;;;;5032536;28;20044;-75
2024/02/22 12:30:59;;;;;;;6.25;2.65;;;18.30;62.00;;;;;;5032239;28;20052;-76
2024/02/22 12:33:25;;;;;;;7.72;2.50;;;18.30;62.00;;;;;;5032361;28;20060;-76
2024/02/22 12:35:51;;;;;;;11.25;2.60;;;18.30;62.00;;;;;;5032729;28;20056;-74